createdAt,value
2023-02-27T00:07:06.652Z,6709.61035
2023-02-27T00:22:08.850Z,4818.47363
2023-02-27T00:37:11.046Z,2539.60986
2023-02-27T00:52:13.305Z,1695.33496
2023-02-27T01:07:15.585Z,1056.55518
2023-02-27T01:22:18.057Z,313.08929
2023-02-27T01:37:20.300Z,72.69875
2023-02-27T01:52:22.596Z,3.87727
2023-02-27T02:07:24.879Z,0
2023-02-27T02:22:27.285Z,0
2023-02-27T02:37:29.574Z,0
2023-02-27T02:52:31.948Z,0
2023-02-27T03:07:34.151Z,1.93863
2023-02-27T03:22:36.424Z,1.93863
2023-02-27T03:37:38.728Z,1.93863
2023-02-27T03:52:40.969Z,1.93863
2023-02-27T04:07:43.220Z,1.93863
2023-02-27T04:22:45.494Z,1.93863
2023-02-27T04:37:47.685Z,1.93863
2023-02-27T04:52:50.040Z,1.93863
2023-02-27T05:07:52.457Z,1.93863
2023-02-27T05:22:54.688Z,1.93863
2023-02-27T05:37:56.946Z,1.93863
2023-02-27T05:52:59.180Z,1.93863
2023-02-27T06:08:01.454Z,1.93863
2023-02-27T06:23:03.723Z,0
2023-02-27T06:38:05.987Z,0
2023-02-27T06:53:08.263Z,0
2023-02-27T07:08:10.564Z,0
2023-02-27T07:23:12.781Z,0
2023-02-27T07:38:15.001Z,0
2023-02-27T07:53:17.246Z,0
2023-02-27T08:08:19.459Z,0
2023-02-27T08:23:21.850Z,0
2023-02-27T08:38:26.305Z,0
2023-02-27T08:53:28.805Z,0
2023-02-27T09:08:31.460Z,0
2023-02-27T09:23:33.634Z,0
2023-02-27T09:38:35.927Z,0
2023-02-27T09:53:38.340Z,0
2023-02-27T10:08:40.548Z,0
2023-02-27T10:23:42.816Z,0
2023-02-27T10:38:45.107Z,0
2023-02-27T10:53:47.373Z,0
2023-02-27T11:08:50.317Z,0
2023-02-27T11:23:52.665Z,0
2023-02-27T11:38:55.084Z,0
2023-02-27T11:53:57.336Z,0
2023-02-27T12:08:59.513Z,0
2023-02-27T12:24:01.738Z,0
2023-02-27T12:39:03.922Z,0
2023-02-27T12:54:06.177Z,0
2023-02-27T13:09:08.405Z,0
2023-02-27T13:24:10.659Z,0
2023-02-27T13:39:12.874Z,0
2023-02-27T13:54:15.095Z,0
2023-02-27T14:09:17.333Z,1.93863
2023-02-27T14:24:19.563Z,31.01814
2023-02-27T14:39:21.814Z,227.78943
2023-02-27T14:54:24.147Z,630.05585
2023-02-27T15:09:26.509Z,1113.74487
2023-02-27T15:24:31.305Z,1904.7074
2023-02-27T15:39:35.704Z,3423.62671
2023-02-27T15:54:37.915Z,4228.15967
2023-02-27T16:09:40.123Z,5597.8042
2023-02-27T16:24:42.336Z,6540.94922
2023-02-27T16:39:44.673Z,7488.94092
2023-02-27T16:54:47.016Z,8067.62305
2023-02-27T17:09:49.319Z,10424.03223
2023-02-27T17:24:51.821Z,10714.82715
2023-02-27T17:39:54.044Z,12109.67383
2023-02-27T17:54:56.326Z,13002.41406
2023-02-27T18:09:58.648Z,13825.36426
2023-02-27T18:25:01.013Z,11078.32129
2023-02-27T18:40:03.242Z,13461.87109
2023-02-27T18:55:05.501Z,17125.88867
2023-02-27T19:10:07.782Z,18671.94727
2023-02-27T19:25:09.982Z,20326.57227
2023-02-27T19:40:12.168Z,21777.63867
2023-02-27T19:55:14.493Z,19590.85938
2023-02-27T20:10:16.788Z,11342.94434
2023-02-27T20:25:19.820Z,10984.29688
2023-02-27T20:40:22.166Z,11248.9209
2023-02-27T20:55:24.380Z,11744.24121
2023-02-27T21:10:26.532Z,13223.41895
2023-02-27T21:25:28.770Z,11752.96484
2023-02-27T21:40:31.218Z,10790.43359
2023-02-27T21:55:33.528Z,10362.96484
2023-02-27T22:10:35.833Z,11281.87695
2023-02-27T22:25:38.082Z,12627.28906
2023-02-27T22:40:40.317Z,10911.59863
2023-02-27T22:55:42.611Z,8032.72754
2023-02-27T23:10:44.864Z,8345.81738
2023-02-27T23:25:47.293Z,6886.99512
2023-02-27T23:40:49.482Z,4121.53467
2023-02-27T23:55:51.675Z,3357.71313
